University Heights, Iowa
Current Conditions -  °F | °C
As of 2:52 PM on Friday 19 Dec 2014 (Local Time) from KIOW Reporting Station
Overcast Overcast  
Wind Chill: 23°   Ceiling: 5000
Heat Index: 30°   Visibility: 10mi
Dew Point: 21°   Wind: 7mph
Humidity: 69%   Direction: 180°S
Pressure: 30.3"   Gusts: NA
Location:  41.5918°N, 91.6264°W
Report Text: KIOW 192052Z AUTO 18006KT 10SM FEW029 OVC050 M01/M06 A3030 RMK AO2 SLP269 T10111061 50006
Loading
Personal Weather Stations






























Interactive Weather Map New forecast layout! Learn more

10-Day Weather Forecast

Advertisements
Track Severe Weather on mobile